sensor_id;sensor_type;location;lat;lon;timestamp;P1;durP1;ratioP1;P2;durP2;ratioP2
65753;SDS011;52488;47.502;18.940;2022-12-18T00:00:27;42.40;;;15.55;;
65753;SDS011;52488;47.502;18.940;2022-12-18T00:01:32;44.72;;;15.32;;
65753;SDS011;52488;47.502;18.940;2022-12-18T00:02:37;43.58;;;15.23;;
65753;SDS011;52488;47.502;18.940;2022-12-18T00:03:41;42.08;;;14.63;;
65753;SDS011;52488;47.502;18.940;2022-12-18T00:04:45;43.22;;;14.93;;
65753;SDS011;52488;47.502;18.940;2022-12-18T00:05:51;42.38;;;16.00;;
65753;SDS011;52488;47.502;18.940;2022-12-18T00:06:54;47.15;;;16.08;;
65753;SDS011;52488;47.502;18.940;2022-12-18T00:07:58;37.20;;;14.43;;
65753;SDS011;52488;47.502;18.940;2022-12-18T00:09:03;42.00;;;14.75;;
65753;SDS011;52488;47.502;18.940;2022-12-18T00:10:07;40.50;;;15.10;;
65753;SDS011;52488;47.502;18.940;2022-12-18T00:11:11;41.35;;;15.38;;
65753;SDS011;52488;47.502;18.940;2022-12-18T00:12:15;33.10;;;13.60;;
65753;SDS011;52488;47.502;18.940;2022-12-18T00:13:19;48.60;;;17.37;;
65753;SDS011;52488;47.502;18.940;2022-12-18T00:14:22;37.85;;;14.52;;
65753;SDS011;52488;47.502;18.940;2022-12-18T00:15:25;41.95;;;14.23;;
65753;SDS011;52488;47.502;18.940;2022-12-18T00:16:28;37.78;;;13.95;;
65753;SDS011;52488;47.502;18.940;2022-12-18T00:17:33;41.30;;;15.50;;
65753;SDS011;52488;47.502;18.940;2022-12-18T00:18:36;42.03;;;16.08;;
65753;SDS011;52488;47.502;18.940;2022-12-18T00:19:40;40.75;;;13.98;;
65753;SDS011;52488;47.502;18.940;2022-12-18T00:20:42;37.95;;;14.10;;
65753;SDS011;52488;47.502;18.940;2022-12-18T00:21:46;35.70;;;13.30;;
65753;SDS011;52488;47.502;18.940;2022-12-18T00:22:48;38.05;;;15.55;;
65753;SDS011;52488;47.502;18.940;2022-12-18T00:23:51;41.72;;;14.73;;
65753;SDS011;52488;47.502;18.940;2022-12-18T00:24:55;42.67;;;15.00;;
65753;SDS011;52488;47.502;18.940;2022-12-18T00:26:01;43.10;;;15.13;;
65753;SDS011;52488;47.502;18.940;2022-12-18T00:27:06;40.65;;;14.15;;
65753;SDS011;52488;47.502;18.940;2022-12-18T00:28:09;42.03;;;15.45;;
65753;SDS011;52488;47.502;18.940;2022-12-18T00:29:13;39.08;;;14.43;;
65753;SDS011;52488;47.502;18.940;2022-12-18T00:30:16;40.00;;;14.65;;
65753;SDS011;52488;47.502;18.940;2022-12-18T00:31:21;37.30;;;13.40;;
65753;SDS011;52488;47.502;18.940;2022-12-18T00:32:26;37.70;;;14.48;;
65753;SDS011;52488;47.502;18.940;2022-12-18T00:33:29;35.55;;;14.18;;
65753;SDS011;52488;47.502;18.940;2022-12-18T00:34:32;41.22;;;14.43;;
65753;SDS011;52488;47.502;18.940;2022-12-18T00:35:35;44.78;;;14.98;;
65753;SDS011;52488;47.502;18.940;2022-12-18T00:36:39;40.55;;;13.65;;
65753;SDS011;52488;47.502;18.940;2022-12-18T00:37:43;40.17;;;13.95;;
65753;SDS011;52488;47.502;18.940;2022-12-18T00:38:46;37.67;;;13.40;;
65753;SDS011;52488;47.502;18.940;2022-12-18T00:39:50;37.20;;;15.07;;
65753;SDS011;52488;47.502;18.940;2022-12-18T00:40:52;41.25;;;13.55;;
65753;SDS011;52488;47.502;18.940;2022-12-18T00:41:55;47.38;;;15.40;;
65753;SDS011;52488;47.502;18.940;2022-12-18T00:43:17;36.40;;;13.27;;
65753;SDS011;52488;47.502;18.940;2022-12-18T00:44:20;36.28;;;13.82;;
65753;SDS011;52488;47.502;18.940;2022-12-18T00:45:23;35.13;;;13.05;;
65753;SDS011;52488;47.502;18.940;2022-12-18T00:46:28;32.47;;;13.65;;
65753;SDS011;52488;47.502;18.940;2022-12-18T00:47:30;41.47;;;13.68;;
65753;SDS011;52488;47.502;18.940;2022-12-18T00:48:33;39.47;;;14.10;;
65753;SDS011;52488;47.502;18.940;2022-12-18T00:49:36;33.58;;;13.50;;
65753;SDS011;52488;47.502;18.940;2022-12-18T00:50:40;36.70;;;13.50;;
65753;SDS011;52488;47.502;18.940;2022-12-18T00:51:43;43.47;;;14.25;;
65753;SDS011;52488;47.502;18.940;2022-12-18T00:52:46;33.92;;;12.88;;
65753;SDS011;52488;47.502;18.940;2022-12-18T00:53:49;34.78;;;13.45;;
65753;SDS011;52488;47.502;18.940;2022-12-18T00:54:52;39.13;;;14.73;;
65753;SDS011;52488;47.502;18.940;2022-12-18T00:55:55;36.38;;;14.20;;
65753;SDS011;52488;47.502;18.940;2022-12-18T00:56:58;41.28;;;14.07;;
65753;SDS011;52488;47.502;18.940;2022-12-18T00:58:01;34.70;;;13.48;;
65753;SDS011;52488;47.502;18.940;2022-12-18T00:59:04;31.20;;;11.55;;
65753;SDS011;52488;47.502;18.940;2022-12-18T01:00:09;34.88;;;12.98;;
65753;SDS011;52488;47.502;18.940;2022-12-18T01:01:15;33.42;;;12.40;;
65753;SDS011;52488;47.502;18.940;2022-12-18T01:02:19;35.55;;;13.62;;
65753;SDS011;52488;47.502;18.940;2022-12-18T01:03:22;37.78;;;13.18;;
65753;SDS011;52488;47.502;18.940;2022-12-18T01:04:25;35.47;;;13.50;;
65753;SDS011;52488;47.502;18.940;2022-12-18T01:05:28;38.45;;;13.25;;
65753;SDS011;52488;47.502;18.940;2022-12-18T01:06:32;34.70;;;12.70;;
65753;SDS011;52488;47.502;18.940;2022-12-18T01:07:35;34.88;;;13.90;;
65753;SDS011;52488;47.502;18.940;2022-12-18T01:08:38;35.13;;;13.27;;
65753;SDS011;52488;47.502;18.940;2022-12-18T01:09:41;37.35;;;13.25;;
65753;SDS011;52488;47.502;18.940;2022-12-18T01:10:44;37.25;;;13.02;;
65753;SDS011;52488;47.502;18.940;2022-12-18T01:11:48;37.15;;;13.25;;
65753;SDS011;52488;47.502;18.940;2022-12-18T01:12:51;34.08;;;12.37;;
65753;SDS011;52488;47.502;18.940;2022-12-18T01:13:54;33.50;;;12.65;;
65753;SDS011;52488;47.502;18.940;2022-12-18T01:14:57;37.22;;;12.82;;
65753;SDS011;52488;47.502;18.940;2022-12-18T01:16:00;37.80;;;12.90;;
65753;SDS011;52488;47.502;18.940;2022-12-18T01:17:03;30.58;;;12.32;;
65753;SDS011;52488;47.502;18.940;2022-12-18T01:18:07;32.83;;;12.95;;
65753;SDS011;52488;47.502;18.940;2022-12-18T01:19:10;33.33;;;13.07;;
65753;SDS011;52488;47.502;18.940;2022-12-18T01:20:13;34.38;;;12.70;;
65753;SDS011;52488;47.502;18.940;2022-12-18T01:21:16;36.80;;;12.70;;
65753;SDS011;52488;47.502;18.940;2022-12-18T01:22:19;34.42;;;12.37;;
65753;SDS011;52488;47.502;18.940;2022-12-18T01:23:22;28.05;;;11.63;;
65753;SDS011;52488;47.502;18.940;2022-12-18T01:24:25;34.38;;;12.88;;
65753;SDS011;52488;47.502;18.940;2022-12-18T01:25:28;33.17;;;11.88;;
65753;SDS011;52488;47.502;18.940;2022-12-18T01:26:32;36.80;;;13.25;;
65753;SDS011;52488;47.502;18.940;2022-12-18T01:27:35;32.20;;;13.38;;
65753;SDS011;52488;47.502;18.940;2022-12-18T01:28:38;34.88;;;12.48;;
65753;SDS011;52488;47.502;18.940;2022-12-18T01:29:42;34.80;;;12.45;;
65753;SDS011;52488;47.502;18.940;2022-12-18T01:30:45;44.28;;;13.95;;
65753;SDS011;52488;47.502;18.940;2022-12-18T01:31:48;37.67;;;14.23;;
65753;SDS011;52488;47.502;18.940;2022-12-18T01:32:51;35.63;;;14.02;;
65753;SDS011;52488;47.502;18.940;2022-12-18T01:33:54;39.08;;;13.27;;
65753;SDS011;52488;47.502;18.940;2022-12-18T01:34:58;34.95;;;13.00;;
65753;SDS011;52488;47.502;18.940;2022-12-18T01:36:01;33.15;;;12.15;;
65753;SDS011;52488;47.502;18.940;2022-12-18T01:37:05;32.60;;;12.88;;
65753;SDS011;52488;47.502;18.940;2022-12-18T01:38:08;38.95;;;14.20;;
65753;SDS011;52488;47.502;18.940;2022-12-18T01:39:12;32.90;;;12.80;;
65753;SDS011;52488;47.502;18.940;2022-12-18T01:40:16;33.30;;;13.25;;
65753;SDS011;52488;47.502;18.940;2022-12-18T01:41:21;33.10;;;12.00;;
65753;SDS011;52488;47.502;18.940;2022-12-18T01:42:26;36.33;;;13.65;;
65753;SDS011;52488;47.502;18.940;2022-12-18T01:43:46;40.03;;;13.68;;
65753;SDS011;52488;47.502;18.940;2022-12-18T01:46:14;35.30;;;12.25;;
65753;SDS011;52488;47.502;18.940;2022-12-18T01:47:20;36.83;;;13.10;;
65753;SDS011;52488;47.502;18.940;2022-12-18T01:48:32;36.25;;;12.93;;
65753;SDS011;52488;47.502;18.940;2022-12-18T01:49:36;31.05;;;11.80;;
65753;SDS011;52488;47.502;18.940;2022-12-18T01:50:40;38.25;;;14.48;;
65753;SDS011;52488;47.502;18.940;2022-12-18T01:51:45;37.08;;;12.85;;
65753;SDS011;52488;47.502;18.940;2022-12-18T01:52:49;33.88;;;13.60;;
65753;SDS011;52488;47.502;18.940;2022-12-18T01:53:58;34.80;;;13.55;;
65753;SDS011;52488;47.502;18.940;2022-12-18T01:55:03;37.55;;;13.13;;
65753;SDS011;52488;47.502;18.940;2022-12-18T01:56:07;33.70;;;13.13;;
65753;SDS011;52488;47.502;18.940;2022-12-18T01:57:14;35.35;;;12.18;;
65753;SDS011;52488;47.502;18.940;2022-12-18T01:58:18;34.63;;;12.73;;
65753;SDS011;52488;47.502;18.940;2022-12-18T01:59:22;37.90;;;13.60;;
65753;SDS011;52488;47.502;18.940;2022-12-18T02:00:25;29.08;;;11.80;;
65753;SDS011;52488;47.502;18.940;2022-12-18T02:01:29;35.92;;;12.25;;
65753;SDS011;52488;47.502;18.940;2022-12-18T02:02:35;36.75;;;13.18;;
65753;SDS011;52488;47.502;18.940;2022-12-18T02:03:41;37.55;;;13.98;;
65753;SDS011;52488;47.502;18.940;2022-12-18T02:04:45;36.92;;;12.98;;
65753;SDS011;52488;47.502;18.940;2022-12-18T02:05:59;33.88;;;13.32;;
65753;SDS011;52488;47.502;18.940;2022-12-18T02:07:07;37.42;;;13.20;;
65753;SDS011;52488;47.502;18.940;2022-12-18T02:10:12;28.65;;;11.43;;
65753;SDS011;52488;47.502;18.940;2022-12-18T02:14:14;34.70;;;11.70;;
65753;SDS011;52488;47.502;18.940;2022-12-18T02:15:31;30.08;;;11.50;;
65753;SDS011;52488;47.502;18.940;2022-12-18T02:18:14;33.78;;;11.23;;
65753;SDS011;52488;47.502;18.940;2022-12-18T02:21:01;32.60;;;12.75;;
65753;SDS011;52488;47.502;18.940;2022-12-18T02:22:45;31.67;;;12.07;;
65753;SDS011;52488;47.502;18.940;2022-12-18T02:24:15;38.22;;;12.25;;
65753;SDS011;52488;47.502;18.940;2022-12-18T02:27:09;31.92;;;11.18;;
65753;SDS011;52488;47.502;18.940;2022-12-18T02:28:13;31.90;;;11.35;;
65753;SDS011;52488;47.502;18.940;2022-12-18T02:29:24;24.48;;;10.00;;
65753;SDS011;52488;47.502;18.940;2022-12-18T02:30:32;33.22;;;11.45;;
65753;SDS011;52488;47.502;18.940;2022-12-18T02:31:40;28.52;;;11.63;;
65753;SDS011;52488;47.502;18.940;2022-12-18T02:32:49;30.25;;;11.18;;
65753;SDS011;52488;47.502;18.940;2022-12-18T02:33:55;35.33;;;12.37;;
65753;SDS011;52488;47.502;18.940;2022-12-18T02:35:02;31.27;;;11.25;;
65753;SDS011;52488;47.502;18.940;2022-12-18T02:36:08;23.38;;;10.52;;
65753;SDS011;52488;47.502;18.940;2022-12-18T02:37:15;30.65;;;11.57;;
65753;SDS011;52488;47.502;18.940;2022-12-18T02:38:21;32.67;;;10.70;;
65753;SDS011;52488;47.502;18.940;2022-12-18T02:39:28;28.58;;;10.77;;
65753;SDS011;52488;47.502;18.940;2022-12-18T02:40:33;34.58;;;10.93;;
65753;SDS011;52488;47.502;18.940;2022-12-18T02:41:38;30.48;;;11.00;;
65753;SDS011;52488;47.502;18.940;2022-12-18T02:42:42;29.23;;;11.25;;
65753;SDS011;52488;47.502;18.940;2022-12-18T02:43:48;30.75;;;11.25;;
65753;SDS011;52488;47.502;18.940;2022-12-18T02:44:52;34.10;;;11.88;;
65753;SDS011;52488;47.502;18.940;2022-12-18T02:45:58;28.25;;;10.25;;
65753;SDS011;52488;47.502;18.940;2022-12-18T02:47:03;29.15;;;10.68;;
65753;SDS011;52488;47.502;18.940;2022-12-18T02:48:07;28.10;;;10.88;;
65753;SDS011;52488;47.502;18.940;2022-12-18T02:50:41;26.17;;;9.63;;
65753;SDS011;52488;47.502;18.940;2022-12-18T02:53:17;29.70;;;11.18;;
65753;SDS011;52488;47.502;18.940;2022-12-18T02:54:48;26.52;;;9.90;;
65753;SDS011;52488;47.502;18.940;2022-12-18T03:01:28;26.02;;;9.55;;
65753;SDS011;52488;47.502;18.940;2022-12-18T03:05:03;26.90;;;10.27;;
65753;SDS011;52488;47.502;18.940;2022-12-18T03:06:27;25.05;;;9.90;;
65753;SDS011;52488;47.502;18.940;2022-12-18T03:07:56;23.95;;;8.23;;
65753;SDS011;52488;47.502;18.940;2022-12-18T03:09:10;31.55;;;9.30;;
65753;SDS011;52488;47.502;18.940;2022-12-18T03:10:19;27.60;;;9.57;;
65753;SDS011;52488;47.502;18.940;2022-12-18T03:11:28;27.62;;;9.18;;
65753;SDS011;52488;47.502;18.940;2022-12-18T03:13:09;24.45;;;8.40;;
65753;SDS011;52488;47.502;18.940;2022-12-18T03:14:17;28.33;;;10.23;;
65753;SDS011;52488;47.502;18.940;2022-12-18T03:15:25;31.00;;;11.10;;
65753;SDS011;52488;47.502;18.940;2022-12-18T03:16:33;28.35;;;10.15;;
65753;SDS011;52488;47.502;18.940;2022-12-18T03:17:39;26.95;;;9.70;;
65753;SDS011;52488;47.502;18.940;2022-12-18T03:18:48;33.55;;;10.23;;
65753;SDS011;52488;47.502;18.940;2022-12-18T03:19:56;27.90;;;10.15;;
65753;SDS011;52488;47.502;18.940;2022-12-18T03:21:05;31.02;;;10.60;;
65753;SDS011;52488;47.502;18.940;2022-12-18T03:22:12;28.23;;;10.60;;
65753;SDS011;52488;47.502;18.940;2022-12-18T03:23:19;27.23;;;9.32;;
65753;SDS011;52488;47.502;18.940;2022-12-18T03:24:27;21.90;;;8.55;;
65753;SDS011;52488;47.502;18.940;2022-12-18T03:25:34;22.37;;;8.90;;
65753;SDS011;52488;47.502;18.940;2022-12-18T03:26:44;28.05;;;9.60;;
65753;SDS011;52488;47.502;18.940;2022-12-18T03:27:50;23.12;;;8.75;;
65753;SDS011;52488;47.502;18.940;2022-12-18T03:28:59;27.17;;;9.18;;
65753;SDS011;52488;47.502;18.940;2022-12-18T03:30:41;22.87;;;8.23;;
65753;SDS011;52488;47.502;18.940;2022-12-18T03:31:51;25.42;;;8.82;;
65753;SDS011;52488;47.502;18.940;2022-12-18T03:33:08;25.00;;;8.40;;
65753;SDS011;52488;47.502;18.940;2022-12-18T03:34:17;21.80;;;7.87;;
65753;SDS011;52488;47.502;18.940;2022-12-18T03:35:27;25.55;;;9.18;;
65753;SDS011;52488;47.502;18.940;2022-12-18T03:36:35;21.60;;;8.60;;
65753;SDS011;52488;47.502;18.940;2022-12-18T03:37:38;23.25;;;9.02;;
65753;SDS011;52488;47.502;18.940;2022-12-18T03:38:41;22.50;;;8.80;;
65753;SDS011;52488;47.502;18.940;2022-12-18T03:39:44;25.12;;;9.13;;
65753;SDS011;52488;47.502;18.940;2022-12-18T03:41:06;22.00;;;7.37;;
65753;SDS011;52488;47.502;18.940;2022-12-18T03:42:29;25.20;;;8.55;;
65753;SDS011;52488;47.502;18.940;2022-12-18T03:45:23;20.60;;;8.15;;
65753;SDS011;52488;47.502;18.940;2022-12-18T03:48:31;25.55;;;7.45;;
65753;SDS011;52488;47.502;18.940;2022-12-18T03:49:35;19.65;;;7.97;;
65753;SDS011;52488;47.502;18.940;2022-12-18T03:50:57;19.58;;;7.37;;
65753;SDS011;52488;47.502;18.940;2022-12-18T03:52:16;22.35;;;8.00;;
65753;SDS011;52488;47.502;18.940;2022-12-18T03:53:41;20.45;;;6.87;;
65753;SDS011;52488;47.502;18.940;2022-12-18T03:54:51;23.42;;;7.62;;
65753;SDS011;52488;47.502;18.940;2022-12-18T03:55:57;22.90;;;7.18;;
65753;SDS011;52488;47.502;18.940;2022-12-18T03:57:09;19.35;;;6.97;;
65753;SDS011;52488;47.502;18.940;2022-12-18T03:58:19;18.33;;;7.03;;
65753;SDS011;52488;47.502;18.940;2022-12-18T03:59:26;26.12;;;9.13;;
65753;SDS011;52488;47.502;18.940;2022-12-18T04:00:31;20.27;;;8.20;;
65753;SDS011;52488;47.502;18.940;2022-12-18T04:01:36;24.45;;;8.30;;
65753;SDS011;52488;47.502;18.940;2022-12-18T04:02:45;20.62;;;7.70;;
65753;SDS011;52488;47.502;18.940;2022-12-18T04:03:54;20.75;;;8.07;;
65753;SDS011;52488;47.502;18.940;2022-12-18T04:05:00;21.23;;;8.65;;
65753;SDS011;52488;47.502;18.940;2022-12-18T04:06:07;23.65;;;8.60;;
65753;SDS011;52488;47.502;18.940;2022-12-18T04:07:11;21.90;;;7.75;;
65753;SDS011;52488;47.502;18.940;2022-12-18T04:08:15;25.10;;;8.30;;
65753;SDS011;52488;47.502;18.940;2022-12-18T04:09:19;19.50;;;7.55;;
65753;SDS011;52488;47.502;18.940;2022-12-18T04:10:23;22.37;;;8.50;;
65753;SDS011;52488;47.502;18.940;2022-12-18T04:11:26;21.20;;;8.30;;
65753;SDS011;52488;47.502;18.940;2022-12-18T04:12:30;25.23;;;9.75;;
65753;SDS011;52488;47.502;18.940;2022-12-18T04:13:34;25.90;;;8.60;;
65753;SDS011;52488;47.502;18.940;2022-12-18T04:14:39;24.33;;;9.20;;
65753;SDS011;52488;47.502;18.940;2022-12-18T04:15:42;20.40;;;8.00;;
65753;SDS011;52488;47.502;18.940;2022-12-18T04:16:45;23.08;;;8.65;;
65753;SDS011;52488;47.502;18.940;2022-12-18T04:17:48;21.05;;;7.95;;
65753;SDS011;52488;47.502;18.940;2022-12-18T04:18:52;25.73;;;8.75;;
65753;SDS011;52488;47.502;18.940;2022-12-18T04:19:56;24.08;;;7.00;;
65753;SDS011;52488;47.502;18.940;2022-12-18T04:20:59;18.77;;;7.07;;
65753;SDS011;52488;47.502;18.940;2022-12-18T04:22:02;27.27;;;9.13;;
65753;SDS011;52488;47.502;18.940;2022-12-18T04:23:05;21.00;;;7.95;;
65753;SDS011;52488;47.502;18.940;2022-12-18T04:24:08;19.92;;;8.07;;
65753;SDS011;52488;47.502;18.940;2022-12-18T04:25:11;21.90;;;8.05;;
65753;SDS011;52488;47.502;18.940;2022-12-18T04:26:15;18.42;;;7.05;;
65753;SDS011;52488;47.502;18.940;2022-12-18T04:27:19;20.37;;;8.23;;
65753;SDS011;52488;47.502;18.940;2022-12-18T04:28:22;18.70;;;8.07;;
65753;SDS011;52488;47.502;18.940;2022-12-18T04:29:25;19.95;;;7.78;;
65753;SDS011;52488;47.502;18.940;2022-12-18T04:30:28;22.70;;;8.15;;
65753;SDS011;52488;47.502;18.940;2022-12-18T04:31:31;24.87;;;8.32;;
65753;SDS011;52488;47.502;18.940;2022-12-18T04:32:34;23.15;;;8.40;;
65753;SDS011;52488;47.502;18.940;2022-12-18T04:33:37;21.58;;;8.43;;
65753;SDS011;52488;47.502;18.940;2022-12-18T04:34:41;20.92;;;7.30;;
65753;SDS011;52488;47.502;18.940;2022-12-18T04:35:44;21.05;;;8.10;;
65753;SDS011;52488;47.502;18.940;2022-12-18T04:36:47;22.23;;;8.15;;
65753;SDS011;52488;47.502;18.940;2022-12-18T04:37:50;23.35;;;8.27;;
65753;SDS011;52488;47.502;18.940;2022-12-18T04:38:53;25.42;;;9.02;;
65753;SDS011;52488;47.502;18.940;2022-12-18T04:39:56;25.58;;;8.63;;
65753;SDS011;52488;47.502;18.940;2022-12-18T04:40:59;25.92;;;7.90;;
65753;SDS011;52488;47.502;18.940;2022-12-18T04:42:02;23.20;;;7.97;;
65753;SDS011;52488;47.502;18.940;2022-12-18T04:43:05;25.75;;;8.25;;
65753;SDS011;52488;47.502;18.940;2022-12-18T04:44:08;20.30;;;7.82;;
65753;SDS011;52488;47.502;18.940;2022-12-18T04:45:11;21.12;;;7.47;;
65753;SDS011;52488;47.502;18.940;2022-12-18T04:46:14;19.75;;;7.47;;
65753;SDS011;52488;47.502;18.940;2022-12-18T04:47:17;18.12;;;7.53;;
65753;SDS011;52488;47.502;18.940;2022-12-18T04:48:20;22.15;;;8.65;;
65753;SDS011;52488;47.502;18.940;2022-12-18T04:49:24;22.45;;;7.45;;
65753;SDS011;52488;47.502;18.940;2022-12-18T04:50:27;21.02;;;7.85;;
65753;SDS011;52488;47.502;18.940;2022-12-18T04:51:30;18.02;;;7.05;;
65753;SDS011;52488;47.502;18.940;2022-12-18T04:52:33;22.15;;;7.72;;
65753;SDS011;52488;47.502;18.940;2022-12-18T04:53:36;20.27;;;7.30;;
65753;SDS011;52488;47.502;18.940;2022-12-18T04:54:39;21.00;;;7.95;;
65753;SDS011;52488;47.502;18.940;2022-12-18T04:55:42;22.62;;;7.97;;
65753;SDS011;52488;47.502;18.940;2022-12-18T04:56:46;21.42;;;8.20;;
65753;SDS011;52488;47.502;18.940;2022-12-18T04:57:49;27.50;;;9.50;;
65753;SDS011;52488;47.502;18.940;2022-12-18T04:58:52;25.73;;;9.00;;
65753;SDS011;52488;47.502;18.940;2022-12-18T04:59:55;26.08;;;8.48;;
65753;SDS011;52488;47.502;18.940;2022-12-18T05:00:58;23.62;;;8.30;;
65753;SDS011;52488;47.502;18.940;2022-12-18T05:02:01;23.55;;;8.68;;
65753;SDS011;52488;47.502;18.940;2022-12-18T05:03:04;19.90;;;7.70;;
65753;SDS011;52488;47.502;18.940;2022-12-18T05:04:08;25.17;;;9.55;;
65753;SDS011;52488;47.502;18.940;2022-12-18T05:05:11;24.15;;;9.10;;
65753;SDS011;52488;47.502;18.940;2022-12-18T05:06:14;30.35;;;10.05;;
65753;SDS011;52488;47.502;18.940;2022-12-18T05:07:17;25.80;;;9.27;;
65753;SDS011;52488;47.502;18.940;2022-12-18T05:08:20;26.35;;;9.57;;
65753;SDS011;52488;47.502;18.940;2022-12-18T05:09:23;25.83;;;9.27;;
65753;SDS011;52488;47.502;18.940;2022-12-18T05:10:26;26.10;;;9.55;;
65753;SDS011;52488;47.502;18.940;2022-12-18T05:11:37;24.35;;;8.45;;
65753;SDS011;52488;47.502;18.940;2022-12-18T05:12:40;21.33;;;8.15;;
65753;SDS011;52488;47.502;18.940;2022-12-18T05:14:02;28.17;;;9.90;;
65753;SDS011;52488;47.502;18.940;2022-12-18T05:15:06;22.75;;;8.65;;
65753;SDS011;52488;47.502;18.940;2022-12-18T05:16:09;22.30;;;8.90;;
65753;SDS011;52488;47.502;18.940;2022-12-18T05:17:13;31.77;;;9.57;;
65753;SDS011;52488;47.502;18.940;2022-12-18T05:18:16;28.77;;;10.32;;
65753;SDS011;52488;47.502;18.940;2022-12-18T05:19:19;27.52;;;9.85;;
65753;SDS011;52488;47.502;18.940;2022-12-18T05:20:22;30.08;;;9.63;;
65753;SDS011;52488;47.502;18.940;2022-12-18T05:21:26;26.70;;;9.85;;
65753;SDS011;52488;47.502;18.940;2022-12-18T05:22:29;21.90;;;9.95;;
65753;SDS011;52488;47.502;18.940;2022-12-18T05:23:35;28.95;;;10.15;;
65753;SDS011;52488;47.502;18.940;2022-12-18T05:24:39;24.37;;;8.80;;
65753;SDS011;52488;47.502;18.940;2022-12-18T05:25:42;22.75;;;8.80;;
65753;SDS011;52488;47.502;18.940;2022-12-18T05:26:50;20.45;;;8.32;;
65753;SDS011;52488;47.502;18.940;2022-12-18T05:27:54;21.80;;;8.52;;
65753;SDS011;52488;47.502;18.940;2022-12-18T05:28:57;22.73;;;8.40;;
65753;SDS011;52488;47.502;18.940;2022-12-18T05:30:00;22.37;;;8.68;;
65753;SDS011;52488;47.502;18.940;2022-12-18T05:31:03;18.45;;;7.80;;
65753;SDS011;52488;47.502;18.940;2022-12-18T05:32:07;21.52;;;8.20;;
65753;SDS011;52488;47.502;18.940;2022-12-18T05:33:10;18.37;;;7.62;;
65753;SDS011;52488;47.502;18.940;2022-12-18T05:34:13;25.30;;;9.05;;
65753;SDS011;52488;47.502;18.940;2022-12-18T05:35:16;23.35;;;8.93;;
65753;SDS011;52488;47.502;18.940;2022-12-18T05:36:19;22.98;;;8.00;;
65753;SDS011;52488;47.502;18.940;2022-12-18T05:37:23;22.55;;;7.62;;
65753;SDS011;52488;47.502;18.940;2022-12-18T05:38:26;19.62;;;7.97;;
65753;SDS011;52488;47.502;18.940;2022-12-18T05:39:29;19.62;;;7.70;;
65753;SDS011;52488;47.502;18.940;2022-12-18T05:40:33;21.85;;;7.43;;
65753;SDS011;52488;47.502;18.940;2022-12-18T05:41:35;24.60;;;8.60;;
65753;SDS011;52488;47.502;18.940;2022-12-18T05:42:38;21.62;;;7.97;;
65753;SDS011;52488;47.502;18.940;2022-12-18T05:43:42;21.65;;;8.93;;
65753;SDS011;52488;47.502;18.940;2022-12-18T05:44:45;22.35;;;7.85;;
65753;SDS011;52488;47.502;18.940;2022-12-18T05:45:49;21.50;;;8.07;;
65753;SDS011;52488;47.502;18.940;2022-12-18T05:46:52;23.27;;;9.32;;
65753;SDS011;52488;47.502;18.940;2022-12-18T05:47:55;27.15;;;9.88;;
65753;SDS011;52488;47.502;18.940;2022-12-18T05:48:59;23.50;;;8.52;;
65753;SDS011;52488;47.502;18.940;2022-12-18T05:50:03;23.73;;;8.45;;
65753;SDS011;52488;47.502;18.940;2022-12-18T05:51:08;22.95;;;8.70;;
65753;SDS011;52488;47.502;18.940;2022-12-18T05:52:12;25.02;;;8.50;;
65753;SDS011;52488;47.502;18.940;2022-12-18T05:53:16;24.80;;;8.07;;
65753;SDS011;52488;47.502;18.940;2022-12-18T05:54:21;23.42;;;8.77;;
65753;SDS011;52488;47.502;18.940;2022-12-18T05:55:24;22.17;;;8.77;;
65753;SDS011;52488;47.502;18.940;2022-12-18T05:56:28;23.00;;;8.38;;
65753;SDS011;52488;47.502;18.940;2022-12-18T05:57:31;24.25;;;7.78;;
65753;SDS011;52488;47.502;18.940;2022-12-18T05:58:34;24.35;;;8.48;;
65753;SDS011;52488;47.502;18.940;2022-12-18T05:59:38;24.52;;;8.68;;
65753;SDS011;52488;47.502;18.940;2022-12-18T06:00:43;29.08;;;8.75;;
65753;SDS011;52488;47.502;18.940;2022-12-18T06:01:47;22.80;;;8.35;;
65753;SDS011;52488;47.502;18.940;2022-12-18T06:02:51;20.75;;;8.48;;
65753;SDS011;52488;47.502;18.940;2022-12-18T06:03:54;21.75;;;7.72;;
65753;SDS011;52488;47.502;18.940;2022-12-18T06:04:58;22.02;;;8.38;;
65753;SDS011;52488;47.502;18.940;2022-12-18T06:06:01;21.67;;;8.38;;
65753;SDS011;52488;47.502;18.940;2022-12-18T06:07:04;21.75;;;8.48;;
65753;SDS011;52488;47.502;18.940;2022-12-18T06:08:08;23.85;;;9.00;;
65753;SDS011;52488;47.502;18.940;2022-12-18T06:09:11;22.80;;;8.10;;
65753;SDS011;52488;47.502;18.940;2022-12-18T06:10:14;25.00;;;8.73;;
65753;SDS011;52488;47.502;18.940;2022-12-18T06:11:19;20.33;;;7.32;;
65753;SDS011;52488;47.502;18.940;2022-12-18T06:12:24;18.70;;;7.75;;
65753;SDS011;52488;47.502;18.940;2022-12-18T06:13:27;19.00;;;7.50;;
65753;SDS011;52488;47.502;18.940;2022-12-18T06:14:30;21.95;;;8.10;;
65753;SDS011;52488;47.502;18.940;2022-12-18T06:15:35;21.02;;;7.78;;
65753;SDS011;52488;47.502;18.940;2022-12-18T06:16:39;24.40;;;8.48;;
65753;SDS011;52488;47.502;18.940;2022-12-18T06:17:42;24.12;;;7.87;;
65753;SDS011;52488;47.502;18.940;2022-12-18T06:18:46;21.20;;;7.95;;
65753;SDS011;52488;47.502;18.940;2022-12-18T06:19:49;18.45;;;7.22;;
65753;SDS011;52488;47.502;18.940;2022-12-18T06:20:55;24.40;;;8.10;;
65753;SDS011;52488;47.502;18.940;2022-12-18T06:21:59;19.85;;;7.82;;
65753;SDS011;52488;47.502;18.940;2022-12-18T06:23:02;24.67;;;7.65;;
65753;SDS011;52488;47.502;18.940;2022-12-18T06:24:05;21.42;;;7.87;;
65753;SDS011;52488;47.502;18.940;2022-12-18T06:25:09;19.02;;;7.60;;
65753;SDS011;52488;47.502;18.940;2022-12-18T06:26:12;22.70;;;7.95;;
65753;SDS011;52488;47.502;18.940;2022-12-18T06:27:16;21.58;;;7.25;;
65753;SDS011;52488;47.502;18.940;2022-12-18T06:28:19;25.00;;;8.43;;
65753;SDS011;52488;47.502;18.940;2022-12-18T06:29:22;21.25;;;7.70;;
65753;SDS011;52488;47.502;18.940;2022-12-18T06:30:28;22.42;;;7.78;;
65753;SDS011;52488;47.502;18.940;2022-12-18T06:31:31;23.67;;;7.68;;
65753;SDS011;52488;47.502;18.940;2022-12-18T06:32:34;20.58;;;7.62;;
65753;SDS011;52488;47.502;18.940;2022-12-18T06:33:37;21.45;;;7.47;;
65753;SDS011;52488;47.502;18.940;2022-12-18T06:34:41;18.10;;;7.35;;
65753;SDS011;52488;47.502;18.940;2022-12-18T06:35:45;20.10;;;7.70;;
65753;SDS011;52488;47.502;18.940;2022-12-18T06:36:48;21.10;;;7.75;;
65753;SDS011;52488;47.502;18.940;2022-12-18T06:37:51;21.65;;;7.50;;
65753;SDS011;52488;47.502;18.940;2022-12-18T06:38:54;19.17;;;7.87;;
65753;SDS011;52488;47.502;18.940;2022-12-18T06:39:59;21.85;;;7.65;;
65753;SDS011;52488;47.502;18.940;2022-12-18T06:41:10;21.48;;;7.37;;
65753;SDS011;52488;47.502;18.940;2022-12-18T06:42:14;22.70;;;7.93;;
65753;SDS011;52488;47.502;18.940;2022-12-18T06:43:17;21.98;;;8.20;;
65753;SDS011;52488;47.502;18.940;2022-12-18T06:44:20;19.85;;;7.65;;
65753;SDS011;52488;47.502;18.940;2022-12-18T06:45:24;20.55;;;7.18;;
65753;SDS011;52488;47.502;18.940;2022-12-18T06:46:27;20.17;;;7.60;;